Carnival Vista — 3EMB9 — position and weather

sailwx.info

Track history (hours):
 
Tides and Currents Weather Stations Pressure Air Temp Water Temp Dewpoint Dewpoint Depression Visibility Wind Speed Wind Dir Waves Ship Positions

Carnival Vista

Last reported at 2018-Jul-22 16:30 UTC. Time now 2018-Jul-22 16:27 UTC.
Position N 25°47' W 080°10'.

Length 324 m; draft 8.5 m.

Type: Passenger vessel. MMSI: 356883000.

Date/timePositionNaut miles runAvg speedWind from/ knotsBaromVisibWave heightAir tempDewpointWater temp
2018-Jul-22 16:30N 25°47' W 080°10'0 0.0
2018-Jul-22 16:00N 25°47' W 080°10'0 0.0
2018-Jul-22 15:00N 25°47' W 080°10'0 0.0
2018-Jul-22 14:30N 25°47' W 080°10'0 0.0
2018-Jul-22 14:00N 25°47' W 080°10'0 0.0
2018-Jul-22 13:30N 25°47' W 080°10'0 0.0
2018-Jul-22 13:00N 25°47' W 080°10'0 0.0
2018-Jul-22 12:27N 25°47' W 080°10'0 0.0
2018-Jul-22 12:00N 25°47' W 080°10'0 0.0
2018-Jul-22 11:30N 25°47' W 080°10'0 0.0
2018-Jul-22 10:57N 25°47' W 080°10'0 0.0
2018-Jul-22 10:30N 25°47' W 080°10'0 0.0
2018-Jul-22 10:00N 25°47' W 080°10'1 1.8
2018-Jul-22 09:31N 25°47' W 080°11'3 5.2
2018-Jul-22 09:00N 25°46' W 080°08'611.7
2018-Jul-22 08:31N 25°47' W 080°02'611.5
2018-Jul-22 08:00N 25°43' W 079°57'816.4
2018-Jul-22 07:31N 25°36' W 079°53'917.6
2018-Jul-22 07:00N 25°28' W 079°48'1019.5
2018-Jul-22 06:30N 25°19' W 079°43'  
2018-Jul-20 01:00N 13°36' W 070°54'   090 / 301011.4
2018-Jul-16 03:00N 22°48' W 072°24'8914.9 090 / 201018.0 28.026.628.0
2018-Jul-15 21:00N 23°48' W 073°36'11816.8 090 / 151017.010.8 30.027.326.0
2018-Jul-15 14:00N 25°00' W 075°18'6516.3 100 / 101018.0 29.029.028.0
2018-Jul-15 10:00N 25°36' W 076°18'12816.0 140 / 81017.010.8 28.026.628.0
2018-Jul-15 02:00N 26°06' W 078°36'4620.5 050 / 101018.0 29.027.629.0
2018-Jul-14 23:44N 26°10' W 079°28'522.6
2018-Jul-14 23:31N 26°05' W 079°30'1020.7
2018-Jul-14 23:00N 25°58' W 079°38'917.9
2018-Jul-14 22:30N 25°53' W 079°47'918.1
2018-Jul-14 22:01N 25°48' W 079°55'815.7
2018-Jul-14 21:30N 25°46' W 080°03'510.1
2018-Jul-14 21:00N 25°46' W 080°09'1 2.2
2018-Jul-14 20:28N 25°47' W 080°10'0 0.0
2018-Jul-14 19:58N 25°47' W 080°10'0 0.0
2018-Jul-14 19:28N 25°47' W 080°10'0 0.0
2018-Jul-14 18:58N 25°47' W 080°10'0 0.0
2018-Jul-14 18:28N 25°47' W 080°10'0 0.0
2018-Jul-14 17:58N 25°47' W 080°10'0 0.0
2018-Jul-14 17:22N 25°47' W 080°10'0 0.0
2018-Jul-14 16:58N 25°47' W 080°10'0 0.0
2018-Jul-14 16:28N 25°47' W 080°10'0 0.0
2018-Jul-14 15:52N 25°47' W 080°10'0 0.0
2018-Jul-14 15:25N 25°47' W 080°10'0 0.0
2018-Jul-14 14:55N 25°47' W 080°10'0 0.0
2018-Jul-14 14:28N 25°47' W 080°10'0 0.0
2018-Jul-14 13:28N 25°47' W 080°10'0 0.0
2018-Jul-14 12:58N 25°47' W 080°10'0 0.0
2018-Jul-14 12:25N 25°47' W 080°10'0 0.0
2018-Jul-14 11:58N 25°47' W 080°10'0 0.0
2018-Jul-14 11:28N 25°47' W 080°10'0 0.0
2018-Jul-14 10:58N 25°47' W 080°10'0 0.0
2018-Jul-14 10:28N 25°47' W 080°10'0 0.0
2018-Jul-14 09:58N 25°47' W 080°10'0 0.0
2018-Jul-14 09:28N 25°47' W 080°10'0 0.0
2018-Jul-14 09:00N 25°47' W 080°10'1 1.7
2018-Jul-14 08:31N 25°47' W 080°11'2 4.7
2018-Jul-14 08:00N 25°46' W 080°09'611.4
2018-Jul-14 07:30N 25°46' W 080°02'5 9.6
2018-Jul-14 07:01N 25°42' W 079°60'611.6
2018-Jul-14 06:30N 25°38' W 079°56'612.1
2018-Jul-14 06:00N 25°32' W 079°52'712.6
2018-Jul-14 05:28N 25°26' W 079°49'611.8
2018-Jul-14 05:00N 25°22' W 079°46'712.7
2018-Jul-14 04:29N 25°15' W 079°48'48716.6
2018-Jul-12 23:06N 20°32' W 086°58'113.1
2018-Jul-12 23:00N 20°31' W 086°59'3 5.6
2018-Jul-12 22:30N 20°29' W 086°59'0 0.0
2018-Jul-12 22:00N 20°29' W 086°59'0 0.0
2018-Jul-12 21:30N 20°29' W 086°59'0 0.0
2018-Jul-12 21:00N 20°29' W 086°59'0 0.0
2018-Jul-12 20:30N 20°29' W 086°59'0 0.0
2018-Jul-12 20:00N 20°29' W 086°59'0 0.0
2018-Jul-12 19:30N 20°29' W 086°59'0 0.0
2018-Jul-12 19:00N 20°29' W 086°59'0 0.0
2018-Jul-12 18:30N 20°29' W 086°59'0 0.0
2018-Jul-12 18:00N 20°29' W 086°59'0 0.0
2018-Jul-12 17:30N 20°29' W 086°59'0 0.0
2018-Jul-12 16:54N 20°29' W 086°59'0 0.0
2018-Jul-12 16:30N 20°29' W 086°59'  
Track history (hours):
 
Tides and Currents Weather Stations Pressure Air Temp Water Temp Dewpoint Dewpoint Depression Visibility Wind Speed Wind Dir Waves Ship Positions

Carnival Vista

Last reported at 2018-Jul-22 16:30 UTC. Time now 2018-Jul-22 16:27 UTC.
Position N 25°47' W 080°10'.

Length 324 m; draft 8.5 m.

Type: Passenger vessel. MMSI: 356883000.

Date/timePositionNaut miles runAvg speedWind from/ knotsBaromVisibWave heightAir tempDewpointWater temp
2018-Jul-22 16:30N 25°47' W 080°10'0 0.0
2018-Jul-22 16:00N 25°47' W 080°10'0 0.0
2018-Jul-22 15:00N 25°47' W 080°10'0 0.0
2018-Jul-22 14:30N 25°47' W 080°10'0 0.0
2018-Jul-22 14:00N 25°47' W 080°10'0 0.0
2018-Jul-22 13:30N 25°47' W 080°10'0 0.0
2018-Jul-22 13:00N 25°47' W 080°10'0 0.0
2018-Jul-22 12:27N 25°47' W 080°10'0 0.0
2018-Jul-22 12:00N 25°47' W 080°10'0 0.0
2018-Jul-22 11:30N 25°47' W 080°10'0 0.0
2018-Jul-22 10:57N 25°47' W 080°10'0 0.0
2018-Jul-22 10:30N 25°47' W 080°10'0 0.0
2018-Jul-22 10:00N 25°47' W 080°10'1 1.8
2018-Jul-22 09:31N 25°47' W 080°11'3 5.2
2018-Jul-22 09:00N 25°46' W 080°08'611.7
2018-Jul-22 08:31N 25°47' W 080°02'611.5
2018-Jul-22 08:00N 25°43' W 079°57'816.4
2018-Jul-22 07:31N 25°36' W 079°53'917.6
2018-Jul-22 07:00N 25°28' W 079°48'1019.5
2018-Jul-22 06:30N 25°19' W 079°43'  
2018-Jul-20 01:00N 13°36' W 070°54'   090 / 301011.4
2018-Jul-16 03:00N 22°48' W 072°24'8914.9 090 / 201018.0 28.026.628.0
2018-Jul-15 21:00N 23°48' W 073°36'11816.8 090 / 151017.010.8 30.027.326.0
2018-Jul-15 14:00N 25°00' W 075°18'6516.3 100 / 101018.0 29.029.028.0
2018-Jul-15 10:00N 25°36' W 076°18'12816.0 140 / 81017.010.8 28.026.628.0
2018-Jul-15 02:00N 26°06' W 078°36'4620.5 050 / 101018.0 29.027.629.0
2018-Jul-14 23:44N 26°10' W 079°28'522.6
2018-Jul-14 23:31N 26°05' W 079°30'1020.7
2018-Jul-14 23:00N 25°58' W 079°38'917.9
2018-Jul-14 22:30N 25°53' W 079°47'918.1
2018-Jul-14 22:01N 25°48' W 079°55'815.7
2018-Jul-14 21:30N 25°46' W 080°03'510.1
2018-Jul-14 21:00N 25°46' W 080°09'1 2.2
2018-Jul-14 20:28N 25°47' W 080°10'0 0.0
2018-Jul-14 19:58N 25°47' W 080°10'0 0.0
2018-Jul-14 19:28N 25°47' W 080°10'0 0.0
2018-Jul-14 18:58N 25°47' W 080°10'0 0.0
2018-Jul-14 18:28N 25°47' W 080°10'0 0.0
2018-Jul-14 17:58N 25°47' W 080°10'0 0.0
2018-Jul-14 17:22N 25°47' W 080°10'0 0.0
2018-Jul-14 16:58N 25°47' W 080°10'0 0.0
2018-Jul-14 16:28N 25°47' W 080°10'0 0.0
2018-Jul-14 15:52N 25°47' W 080°10'0 0.0
2018-Jul-14 15:25N 25°47' W 080°10'0 0.0
2018-Jul-14 14:55N 25°47' W 080°10'0 0.0
2018-Jul-14 14:28N 25°47' W 080°10'0 0.0
2018-Jul-14 13:28N 25°47' W 080°10'0 0.0
2018-Jul-14 12:58N 25°47' W 080°10'0 0.0
2018-Jul-14 12:25N 25°47' W 080°10'0 0.0
2018-Jul-14 11:58N 25°47' W 080°10'0 0.0
2018-Jul-14 11:28N 25°47' W 080°10'0 0.0
2018-Jul-14 10:58N 25°47' W 080°10'0 0.0
2018-Jul-14 10:28N 25°47' W 080°10'0 0.0
2018-Jul-14 09:58N 25°47' W 080°10'0 0.0
2018-Jul-14 09:28N 25°47' W 080°10'0 0.0
2018-Jul-14 09:00N 25°47' W 080°10'1 1.7
2018-Jul-14 08:31N 25°47' W 080°11'2 4.7
2018-Jul-14 08:00N 25°46' W 080°09'611.4
2018-Jul-14 07:30N 25°46' W 080°02'5 9.6
2018-Jul-14 07:01N 25°42' W 079°60'611.6
2018-Jul-14 06:30N 25°38' W 079°56'612.1
2018-Jul-14 06:00N 25°32' W 079°52'712.6
2018-Jul-14 05:28N 25°26' W 079°49'611.8
2018-Jul-14 05:00N 25°22' W 079°46'712.7
2018-Jul-14 04:29N 25°15' W 079°48'48716.6
2018-Jul-12 23:06N 20°32' W 086°58'113.1
2018-Jul-12 23:00N 20°31' W 086°59'3 5.6
2018-Jul-12 22:30N 20°29' W 086°59'0 0.0
2018-Jul-12 22:00N 20°29' W 086°59'0 0.0
2018-Jul-12 21:30N 20°29' W 086°59'0 0.0
2018-Jul-12 21:00N 20°29' W 086°59'0 0.0
2018-Jul-12 20:30N 20°29' W 086°59'0 0.0
2018-Jul-12 20:00N 20°29' W 086°59'0 0.0
2018-Jul-12 19:30N 20°29' W 086°59'0 0.0
2018-Jul-12 19:00N 20°29' W 086°59'0 0.0
2018-Jul-12 18:30N 20°29' W 086°59'0 0.0
2018-Jul-12 18:00N 20°29' W 086°59'0 0.0
2018-Jul-12 17:30N 20°29' W 086°59'0 0.0
2018-Jul-12 16:54N 20°29' W 086°59'0 0.0
2018-Jul-12 16:30N 20°29' W 086°59'  

Dump ship's entire track history